^^
Meteo Knjazevac Station Historical Data
Daily Summary for January 13, 2021 Units:  English    Metric   Both
Daily Weekly Monthly Yearly Custom
  High: Low: Average:
Temperature: 55.2 °F 39.6 °F 47.2 °F
Dew Point: 48.5 °F 39.3 °F 44.3 °F
Humidity: 99% 74% 90%
Wind Speed: 8mph 0mph 2.6mph
Wind Gust: 14mph - -
Wind- - SW
Pressure: 30.19 in 30.01 in -
Precipitation: 0.00 in    
Historical Graphs
 
 
Tabular Data for January 13, 2021
Time Temperature Dew Point Pressure Wind Wind Speed Wind Gust Humidity Rainfall Rate (Hourly) solar Conditions
00:00 46.9 °F 46.7 °F 30.03 in WSW 3 mph 6 mph 99% 0.00 in 0 W/m2
00:10 46.8 °F 46.5 °F 30.02 in SW 3 mph 5 mph 99% 0.00 in 0 W/m2
00:20 46.6 °F 46.3 °F 30.02 in SW 2 mph 6 mph 99% 0.00 in 0 W/m2
00:30 46.2 °F 46 °F 30.02 in WSW 2 mph 5 mph 99% 0.00 in 0 W/m2
00:40 46 °F 45.8 °F 30.02 in WSW 2 mph 5 mph 99% 0.00 in 0 W/m2
00:50 45.9 °F 45.6 °F 30.02 in West 1 mph 4 mph 99% 0.00 in 0 W/m2
01:00 45.7 °F 45.4 °F 30.03 in Calm   3 mph 99% 0.00 in 0 W/m2
01:10 45.3 °F 45.1 °F 30.03 in Calm   1 mph 99% 0.00 in 0 W/m2
01:20 45.1 °F 44.8 °F 30.03 in SSE 1 mph 3 mph 99% 0.00 in 0 W/m2
01:30 44.6 °F 44.3 °F 30.02 in SW 2 mph 3 mph 99% 0.00 in 0 W/m2
01:40 44.4 °F 44.2 °F 30.02 in Calm   2 mph 99% 0.00 in 0 W/m2
01:50 44.1 °F 43.8 °F 30.02 in Calm   2 mph 99% 0.00 in 0 W/m2
02:00 43.8 °F 43.6 °F 30.02 in Calm   2 mph 99% 0.00 in 0 W/m2
02:10 43.5 °F 43.3 °F 30.02 in SSW 1 mph 3 mph 99% 0.00 in 0 W/m2
02:20 43.3 °F 43.1 °F 30.02 in Calm   3 mph 99% 0.00 in 0 W/m2
02:30 43.2 °F 42.9 °F 30.02 in Calm   2 mph 99% 0.00 in 0 W/m2
02:40 43 °F 42.7 °F 30.02 in ESE 1 mph 2 mph 99% 0.00 in 0 W/m2
02:50 42.8 °F 42.5 °F 30.01 in East 2 mph 4 mph 99% 0.00 in 0 W/m2
03:00 42.8 °F 42.5 °F 30.01 in ENE 2 mph 4 mph 99% 0.00 in 0 W/m2
03:10 42.6 °F 42.4 °F 30.01 in NNE 2 mph 3 mph 99% 0.00 in 0 W/m2
03:20 42.4 °F 42.2 °F 30.01 in Calm   3 mph 99% 0.00 in 0 W/m2
03:30 42.2 °F 42 °F 30.02 in North 1 mph 2 mph 99% 0.00 in 0 W/m2
03:40 42.1 °F 41.8 °F 30.02 in NNE 2 mph 3 mph 99% 0.00 in 0 W/m2
03:50 41.8 °F 41.6 °F 30.02 in NNE 1 mph 3 mph 99% 0.00 in 0 W/m2
04:00 41.5 °F 41.3 °F 30.02 in Calm   2 mph 99% 0.00 in 0 W/m2
04:10 41.2 °F 40.9 °F 30.02 in NW 1 mph 2 mph 99% 0.00 in 0 W/m2
04:20 41 °F 40.7 °F 30.02 in North 1 mph 2 mph 99% 0.00 in 0 W/m2
04:30 40.8 °F 40.6 °F 30.02 in SW 1 mph 3 mph 99% 0.00 in 0 W/m2
04:40 40.8 °F 40.5 °F 30.02 in Calm   3 mph 99% 0.00 in 0 W/m2
04:50 40.6 °F 40.4 °F 30.03 in WSW 1 mph 4 mph 99% 0.00 in 0 W/m2
05:00 40.6 °F 40.4 °F 30.02 in Calm   2 mph 99% 0.00 in 0 W/m2
05:10 40.6 °F 40.4 °F 30.03 in SE 2 mph 4 mph 99% 0.00 in 0 W/m2
05:20 40.8 °F 40.6 °F 30.03 in ESE 2 mph 4 mph 99% 0.00 in 0 W/m2
05:30 40.6 °F 40.4 °F 30.03 in NW 1 mph 5 mph 99% 0.00 in 0 W/m2
05:40 40.6 °F 40.3 °F 30.03 in Calm   2 mph 99% 0.00 in 0 W/m2
05:50 40.5 °F 40.2 °F 30.03 in North 1 mph 4 mph 99% 0.00 in 0 W/m2
06:00 40.2 °F 40 °F 30.03 in Calm   3 mph 99% 0.00 in 0 W/m2
06:10 40.1 °F 39.8 °F 30.03 in Calm   3 mph 99% 0.00 in 0 W/m2
06:20 39.7 °F 39.4 °F 30.03 in Calm   2 mph 99% 0.00 in 0 W/m2
06:30 39.6 °F 39.3 °F 30.03 in NNW 1 mph 2 mph 99% 0.00 in 0 W/m2
06:40 39.7 °F 39.5 °F 30.03 in WNW 1 mph 3 mph 99% 0.00 in 0 W/m2
06:50 39.7 °F 39.5 °F 30.03 in NNW 1 mph 3 mph 99% 0.00 in 6 W/m2
07:00 39.7 °F 39.5 °F 30.04 in Calm   3 mph 99% 0.00 in 16 W/m2
07:10 39.8 °F 39.5 °F 30.04 in NE 1 mph 3 mph 99% 0.00 in 30 W/m2
07:20 40.1 °F 39.8 °F 30.04 in South 1 mph 3 mph 99% 0.00 in 49 W/m2
07:30 40.6 °F 40.4 °F 30.04 in SSE 2 mph 6 mph 99% 0.00 in 56 W/m2
07:40 40.7 °F 40.4 °F 30.05 in Calm   2 mph 99% 0.00 in 55 W/m2
07:50 40.8 °F 40.6 °F 30.05 in Calm   4 mph 99% 0.00 in 55 W/m2
08:00 41.2 °F 40.9 °F 30.05 in SW 2 mph 4 mph 99% 0.00 in 66 W/m2
08:10 41.7 °F 41.5 °F 30.05 in SE 2 mph 4 mph 99% 0.00 in 94 W/m2
08:20 42.3 °F 42 °F 30.06 in Calm   4 mph 99% 0.00 in 112 W/m2
08:30 42.9 °F 42.6 °F 30.06 in SSW 2 mph 3 mph 99% 0.00 in 156 W/m2
08:40 43.6 °F 43.3 °F 30.06 in WSW 1 mph 3 mph 99% 0.00 in 212 W/m2
08:50 44.7 °F 44.4 °F 30.06 in SW 2 mph 5 mph 99% 0.00 in 227 W/m2
09:00 45.9 °F 45.7 °F 30.06 in SSW 2 mph 5 mph 99% 0.00 in 202 W/m2
09:10 46.8 °F 46.5 °F 30.06 in SSW 3 mph 6 mph 99% 0.00 in 223 W/m2
09:20 47.5 °F 47.2 °F 30.06 in South 2 mph 6 mph 99% 0.00 in 261 W/m2
09:30 48.1 °F 47.5 °F 30.06 in SW 1 mph 3 mph 98% 0.00 in 339 W/m2
09:40 49 °F 47.9 °F 30.06 in WSW 1 mph 5 mph 96% 0.00 in 210 W/m2
09:50 49.6 °F 48 °F 30.06 in South 2 mph 5 mph 94% 0.00 in 244 W/m2
10:00 50 °F 47.5 °F 30.06 in SSW 2 mph 5 mph 91% 0.00 in 464 W/m2
10:10 51.1 °F 48.5 °F 30.06 in WSW 2 mph 4 mph 91% 0.00 in 270 W/m2
10:20 51.8 °F 48.4 °F 30.06 in WSW 5 mph 8 mph 88% 0.00 in 253 W/m2
10:30 51.8 °F 47.4 °F 30.07 in West 5 mph 10 mph 85% 0.00 in 490 W/m2
10:40 52.2 °F 47.5 °F 30.07 in West 6 mph 12 mph 84% 0.00 in 420 W/m2
10:50 52.4 °F 47.1 °F 30.07 in WSW 5 mph 10 mph 82% 0.00 in 253 W/m2
11:00 52.3 °F 47.3 °F 30.06 in WSW 3 mph 10 mph 83% 0.00 in 250 W/m2
11:10 52.5 °F 47.8 °F 30.06 in WSW 3 mph 10 mph 84% 0.00 in 353 W/m2
11:20 53 °F 47.9 °F 30.07 in SW 3 mph 7 mph 83% 0.00 in 376 W/m2
11:30 53.1 °F 47.1 °F 30.06 in West 6 mph 9 mph 80% 0.00 in 218 W/m2
11:40 53.1 °F 47.4 °F 30.06 in West 6 mph 11 mph 81% 0.00 in 318 W/m2
11:50 52.9 °F 47.5 °F 30.06 in West 6 mph 12 mph 82% 0.00 in 301 W/m2
12:00 52.9 °F 47.9 °F 30.06 in WSW 6 mph 12 mph 83% 0.00 in 279 W/m2
12:10 53.1 °F 47.8 °F 30.06 in West 5 mph 10 mph 82% 0.00 in 604 W/m2
12:20 53.4 °F 47.7 °F 30.07 in WSW 6 mph 13 mph 81% 0.00 in 366 W/m2
12:30 53.3 °F 47.3 °F 30.06 in WSW 6 mph 13 mph 80% 0.00 in 303 W/m2
12:40 53.2 °F 47.2 °F 30.06 in WSW 8 mph 14 mph 80% 0.00 in 309 W/m2
12:50 53.4 °F 47.4 °F 30.06 in WSW 5 mph 13 mph 80% 0.00 in 341 W/m2
13:00 53.4 °F 47.1 °F 30.06 in West 7 mph 13 mph 79% 0.00 in 349 W/m2
13:10 54 °F 47.6 °F 30.06 in WSW 7 mph 12 mph 79% 0.00 in 579 W/m2
13:20 54.3 °F 47.6 °F 30.06 in West 7 mph 12 mph 78% 0.00 in 436 W/m2
13:30 54.3 °F 47.6 °F 30.06 in WSW 5 mph 10 mph 78% 0.00 in 319 W/m2
13:40 54.5 °F 47.8 °F 30.06 in WSW 8 mph 9 mph 78% 0.00 in 546 W/m2
13:50 54.9 °F 47.4 °F 30.06 in West 6 mph 11 mph 76% 0.00 in 300 W/m2
14:00 54.5 °F 46.7 °F 30.06 in West 6 mph 14 mph 75% 0.00 in 226 W/m2
14:10 54.1 °F 46.7 °F 30.06 in West 6 mph 14 mph 76% 0.00 in 242 W/m2
14:20 53.8 °F 46.7 °F 30.06 in West 7 mph 13 mph 77% 0.00 in 256 W/m2
14:30 53.8 °F 46.7 °F 30.06 in West 5 mph 12 mph 77% 0.00 in 362 W/m2
14:40 54.2 °F 46.5 °F 30.06 in West 6 mph 10 mph 75% 0.00 in 442 W/m2
14:50 54.7 °F 46.6 °F 30.06 in West 5 mph 10 mph 74% 0.00 in 290 W/m2
15:00 54.7 °F 46.6 °F 30.06 in West 6 mph 12 mph 74% 0.00 in 317 W/m2
15:10 54.7 °F 46.9 °F 30.06 in West 6 mph 12 mph 75% 0.00 in 175 W/m2
15:20 54.3 °F 46.9 °F 30.06 in WNW 6 mph 12 mph 76% 0.00 in 301 W/m2
15:30 54.1 °F 47.1 °F 30.06 in WNW 6 mph 12 mph 77% 0.00 in 175 W/m2
15:40 54.3 °F 46.6 °F 30.07 in WNW 7 mph 13 mph 75% 0.00 in 282 W/m2
15:50 54.5 °F 46.4 °F 30.07 in WNW 6 mph 13 mph 74% 0.00 in 272 W/m2
16:00 55 °F 47.3 °F 30.07 in WNW 5 mph 12 mph 75% 0.00 in 245 W/m2
16:10 55.2 °F 47.1 °F 30.07 in WNW 7 mph 11 mph 74% 0.00 in 218 W/m2
16:20 55 °F 47.3 °F 30.07 in West 5 mph 9 mph 75% 0.00 in 152 W/m2
16:30 54.7 °F 46.6 °F 30.07 in WNW 5 mph 12 mph 74% 0.00 in 111 W/m2
16:40 54.1 °F 46.3 °F 30.07 in WNW 7 mph 10 mph 75% 0.00 in 71 W/m2
16:50 53.2 °F 46.2 °F 30.08 in West 5 mph 12 mph 77% 0.00 in 65 W/m2
17:00 52.9 °F 46.2 °F 30.08 in West 7 mph 10 mph 78% 0.00 in 78 W/m2
17:10 52.5 °F 45.9 °F 30.08 in WNW 3 mph 11 mph 78% 0.00 in 41 W/m2
17:20 52.2 °F 45.8 °F 30.08 in WNW 5 mph 10 mph 79% 0.00 in 39 W/m2
17:30 52 °F 46 °F 30.08 in West 6 mph 9 mph 80% 0.00 in 22 W/m2
17:40 51.6 °F 45.7 °F 30.09 in West 5 mph 7 mph 80% 0.00 in 5 W/m2
17:50 51.3 °F 45.3 °F 30.09 in West 5 mph 8 mph 80% 0.00 in 4 W/m2
18:00 50.8 °F 44.9 °F 30.10 in West 2 mph 8 mph 80% 0.00 in 0 W/m2
18:10 50.5 °F 44.9 °F 30.10 in SSW 1 mph 4 mph 81% 0.00 in 0 W/m2
18:20 50.2 °F 45.2 °F 30.10 in SW 1 mph 4 mph 83% 0.00 in 0 W/m2
18:30 49.8 °F 44.9 °F 30.11 in SW 1 mph 2 mph 83% 0.00 in 0 W/m2
18:40 49.5 °F 44.8 °F 30.12 in West 1 mph 4 mph 84% 0.00 in 0 W/m2
18:50 49.1 °F 44.8 °F 30.12 in SW 1 mph 2 mph 85% 0.00 in 0 W/m2
19:00 48.7 °F 44.4 °F 30.12 in Calm   2 mph 85% 0.00 in 0 W/m2
19:10 48.6 °F 44.6 °F 30.13 in SE 2 mph 4 mph 86% 0.00 in 0 W/m2
19:20 48.2 °F 44.2 °F 30.13 in SE 1 mph 3 mph 86% 0.00 in 0 W/m2
19:30 47.8 °F 44.5 °F 30.13 in Calm   2 mph 88% 0.00 in 0 W/m2
19:40 47.6 °F 44.2 °F 30.13 in SSE 2 mph 3 mph 88% 0.00 in 0 W/m2
19:50 47.1 °F 44 °F 30.14 in NNE 2 mph 3 mph 89% 0.00 in 0 W/m2
20:00 46.9 °F 43.9 °F 30.14 in SSE 1 mph 4 mph 89% 0.00 in 0 W/m2
20:10 46.6 °F 43.8 °F 30.14 in Calm   4 mph 90% 0.00 in 0 W/m2
20:20 46.2 °F 43.4 °F 30.15 in SSE 2 mph 3 mph 90% 0.00 in 0 W/m2
20:30 46 °F 43.6 °F 30.15 in Calm   2 mph 91% 0.00 in 0 W/m2
20:40 45.9 °F 43.4 °F 30.15 in NNE 1 mph 3 mph 91% 0.00 in 0 W/m2
20:50 45.7 °F 43.2 °F 30.16 in Calm   4 mph 91% 0.00 in 0 W/m2
21:00 45.5 °F 43.6 °F 30.16 in West 1 mph 3 mph 93% 0.00 in 0 W/m2
21:10 45.1 °F 43.2 °F 30.16 in West 2 mph 4 mph 93% 0.00 in 0 W/m2
21:20 45 °F 43.1 °F 30.16 in WSW 2 mph 5 mph 93% 0.00 in 0 W/m2
21:30 44.6 °F 43 °F 30.17 in WSW 2 mph 5 mph 94% 0.00 in 0 W/m2
21:40 44.4 °F 42.8 °F 30.17 in SW 1 mph 5 mph 94% 0.00 in 0 W/m2
22:00 44.5 °F 42.9 °F 30.17 in SSW 1 mph 4 mph 94% 0.00 in 0 W/m2
22:10 44.4 °F 42.8 °F 30.17 in North 1 mph 2 mph 94% 0.00 in 0 W/m2
22:20 44.4 °F 42.8 °F 30.18 in NE 2 mph 3 mph 94% 0.00 in 0 W/m2
22:30 44.4 °F 43.1 °F 30.18 in Calm   2 mph 95% 0.00 in 0 W/m2
22:40 44.2 °F 42.9 °F 30.18 in Calm   2 mph 95% 0.00 in 0 W/m2
22:50 44.1 °F 42.7 °F 30.18 in Calm   1 mph 95% 0.00 in 0 W/m2
23:00 44 °F 42.7 °F 30.18 in Calm   3 mph 95% 0.00 in 0 W/m2
23:10 43.7 °F 42.4 °F 30.18 in WSW 2 mph 3 mph 95% 0.00 in 0 W/m2
23:20 43.5 °F 42.2 °F 30.18 in Calm   2 mph 95% 0.00 in 0 W/m2
23:30 43.3 °F 42 °F 30.19 in Calm   1 mph 95% 0.00 in 0 W/m2
23:40 43.3 °F 42.3 °F 30.19 in ESE 2 mph 2 mph 96% 0.00 in 0 W/m2
23:50 43.3 °F 42.3 °F 30.19 in West 1 mph 2 mph 96% 0.00 in 0 W/m2
Knjazevac, Serbia
Compliments of Weather Underground - 2 mb